createdAt,value
2023-04-22T00:02:02.917Z,47.20
2023-04-22T00:04:30.089Z,47.12
2023-04-22T00:06:56.901Z,46.58
2023-04-22T00:09:28.710Z,47.07
2023-04-22T00:11:57.976Z,47.24
2023-04-22T00:14:24.766Z,47.70
2023-04-22T00:16:53.917Z,47.61
2023-04-22T00:19:21.929Z,48.07
2023-04-22T00:21:53.131Z,49.03
2023-04-22T00:24:22.378Z,49.09
2023-04-22T00:26:51.301Z,48.80
2023-04-22T00:29:18.052Z,48.46
2023-04-22T00:31:47.744Z,48.79
2023-04-22T00:34:18.102Z,48.70
2023-04-22T00:36:47.136Z,47.74
2023-04-22T00:39:14.206Z,48.24
2023-04-22T00:41:40.860Z,47.45
2023-04-22T00:44:13.711Z,47.94
2023-04-22T00:46:42.937Z,48.41
2023-04-22T00:49:09.854Z,48.10
2023-04-22T00:51:36.513Z,48.09
2023-04-22T00:54:06.520Z,47.18
2023-04-22T00:56:33.554Z,47.04
2023-04-22T00:59:00.206Z,47.28
2023-04-22T01:01:29.128Z,47.08
2023-04-22T01:03:58.732Z,47.42
2023-04-22T01:06:26.670Z,47.85
2023-04-22T01:08:53.652Z,47.82
2023-04-22T01:11:21.727Z,47.80
2023-04-22T01:13:48.282Z,47.99
2023-04-22T01:16:15.121Z,47.76
2023-04-22T01:18:44.089Z,48.82
2023-04-22T01:21:11.162Z,49.83
2023-04-22T01:23:38.070Z,49.12
2023-04-22T01:26:04.802Z,49.37
2023-04-22T01:28:31.544Z,49.09
2023-04-22T01:31:00.952Z,49.11
2023-04-22T01:33:30.047Z,49.62
2023-04-22T01:36:03.970Z,49.97
2023-04-22T01:38:33.854Z,50.18
2023-04-22T01:41:04.162Z,50.13
2023-04-22T01:43:31.250Z,50.27
2023-04-22T01:46:00.869Z,50.02
2023-04-22T01:48:30.366Z,50.24
2023-04-22T01:50:59.374Z,50.16
2023-04-22T01:53:31.864Z,50.32
2023-04-22T01:55:58.498Z,51.16
2023-04-22T01:58:25.200Z,50.93
2023-04-22T02:00:54.205Z,51.35
2023-04-22T02:03:23.603Z,51.37
2023-04-22T02:05:52.582Z,51.07
2023-04-22T02:08:22.228Z,50.79
2023-04-22T02:10:48.928Z,52.00
2023-04-22T02:13:15.780Z,52.38
2023-04-22T02:15:42.477Z,51.88
2023-04-22T02:18:10.246Z,51.75
2023-04-22T02:20:39.368Z,51.60
2023-04-22T02:23:06.430Z,51.73
2023-04-22T02:25:33.284Z,52.18
2023-04-22T02:28:02.355Z,51.65
2023-04-22T02:30:34.438Z,51.61
2023-04-22T02:33:01.707Z,51.29
2023-04-22T02:35:30.935Z,51.30
2023-04-22T02:37:59.699Z,51.39
2023-04-22T02:40:26.825Z,51.29
2023-04-22T02:42:53.462Z,51.37
2023-04-22T02:45:24.183Z,51.43
2023-04-22T02:47:52.931Z,51.34
2023-04-22T02:50:19.805Z,51.71
2023-04-22T02:52:51.474Z,51.63
2023-04-22T02:55:24.680Z,51.58
2023-04-22T02:57:54.351Z,51.73
2023-04-22T03:00:21.469Z,51.41
2023-04-22T03:02:48.229Z,51.69
2023-04-22T03:05:17.129Z,51.83
2023-04-22T03:07:45.162Z,51.92
2023-04-22T03:10:12.069Z,51.69
2023-04-22T03:12:43.942Z,51.87
2023-04-22T03:15:13.753Z,51.98
2023-04-22T03:17:40.716Z,51.86
2023-04-22T03:20:11.153Z,51.93
2023-04-22T03:22:37.871Z,52.09
2023-04-22T03:25:08.282Z,52.34
2023-04-22T03:27:35.028Z,52.29
2023-04-22T03:30:02.154Z,52.03
2023-04-22T03:32:34.257Z,52.39
2023-04-22T03:35:24.780Z,52.80
2023-04-22T03:37:59.757Z,52.78
2023-04-22T03:40:31.336Z,53.05
2023-04-22T03:43:03.942Z,53.17
2023-04-22T03:45:34.902Z,53.35
2023-04-22T03:48:19.124Z,54.41
2023-04-22T03:50:49.134Z,54.08
2023-04-22T03:53:16.653Z,53.96
2023-04-22T03:55:46.676Z,54.87
2023-04-22T03:58:14.949Z,54.26
2023-04-22T04:00:42.113Z,53.75
2023-04-22T04:03:15.254Z,53.84
2023-04-22T04:05:45.604Z,53.54
2023-04-22T04:08:14.711Z,54.02
2023-04-22T04:10:42.626Z,54.12
2023-04-22T04:13:15.551Z,53.95
2023-04-22T04:16:11.249Z,54.19
2023-04-22T04:18:40.798Z,53.67
2023-04-22T04:21:08.188Z,53.68
2023-04-22T04:23:39.307Z,54.18
2023-04-22T04:26:06.027Z,54.44
2023-04-22T04:28:37.111Z,54.22
2023-04-22T04:31:06.023Z,54.04
2023-04-22T04:33:37.148Z,54.63
2023-04-22T04:36:04.363Z,54.52
2023-04-22T04:38:34.285Z,54.60
2023-04-22T04:41:01.829Z,54.51
2023-04-22T04:43:29.501Z,54.16
2023-04-22T04:46:08.430Z,53.56
2023-04-22T04:48:37.240Z,53.26
2023-04-22T04:51:11.705Z,53.29
2023-04-22T04:53:48.538Z,53.62
2023-04-22T04:56:15.592Z,52.99
2023-04-22T04:58:47.733Z,53.11
2023-04-22T05:01:26.212Z,52.55
2023-04-22T05:04:00.710Z,52.91
2023-04-22T05:06:29.251Z,53.13
2023-04-22T05:09:04.417Z,53.11
2023-04-22T05:11:31.278Z,53.27
2023-04-22T05:14:02.766Z,53.23
2023-04-22T05:16:36.410Z,53.25
2023-04-22T05:19:03.914Z,53.56
2023-04-22T05:21:31.549Z,53.42
2023-04-22T05:24:01.375Z,53.37
2023-04-22T05:26:31.171Z,53.22
2023-04-22T05:28:58.200Z,52.75
2023-04-22T05:31:25.170Z,53.10
2023-04-22T05:33:51.904Z,52.40
2023-04-22T05:36:18.710Z,52.23
2023-04-22T05:38:49.665Z,52.21
2023-04-22T05:41:16.883Z,51.95
2023-04-22T05:43:46.486Z,51.32
2023-04-22T05:46:16.723Z,51.10
2023-04-22T05:48:44.814Z,50.56
2023-04-22T05:51:31.402Z,50.85
2023-04-22T05:53:57.987Z,50.91
2023-04-22T05:56:24.668Z,50.90
2023-04-22T05:58:51.515Z,51.12
2023-04-22T06:01:21.876Z,51.01
2023-04-22T06:03:57.422Z,51.44
2023-04-22T06:06:26.034Z,51.42
2023-04-22T06:08:55.201Z,51.62
2023-04-22T06:11:24.424Z,52.04
2023-04-22T06:13:51.345Z,51.92
2023-04-22T06:16:23.770Z,51.58
2023-04-22T06:18:50.587Z,51.38
2023-04-22T06:21:22.314Z,50.36
2023-04-22T06:23:52.596Z,50.08
2023-04-22T06:26:21.550Z,49.49
2023-04-22T06:28:48.283Z,48.65
2023-04-22T06:31:19.092Z,48.62
2023-04-22T06:33:47.653Z,48.55
2023-04-22T06:36:14.677Z,49.21
2023-04-22T06:38:45.779Z,49.65
2023-04-22T06:41:36.233Z,49.24
2023-04-22T06:44:11.313Z,49.26
2023-04-22T06:47:06.150Z,48.67
2023-04-22T06:49:55.643Z,48.77
2023-04-22T06:52:23.971Z,48.53
2023-04-22T06:54:56.132Z,47.81
2023-04-22T06:57:22.896Z,47.76
2023-04-22T06:59:52.022Z,47.35
2023-04-22T07:02:21.732Z,46.63
2023-04-22T07:04:50.841Z,46.67
2023-04-22T07:07:17.556Z,45.91
2023-04-22T07:09:49.161Z,44.88
2023-04-22T07:12:15.935Z,44.25
2023-04-22T07:14:43.498Z,43.58
2023-04-22T07:17:11.098Z,43.57
2023-04-22T07:19:38.216Z,42.98
2023-04-22T07:22:07.557Z,42.20
2023-04-22T07:24:34.243Z,42.58
2023-04-22T07:27:02.583Z,42.09
2023-04-22T07:29:31.741Z,41.77
2023-04-22T07:32:01.535Z,41.47
2023-04-22T07:34:30.705Z,40.04
2023-04-22T07:36:59.800Z,39.91
2023-04-22T07:39:28.797Z,36.91
2023-04-22T07:42:00.502Z,37.90
2023-04-22T07:44:27.200Z,38.16
2023-04-22T07:46:54.135Z,37.81
2023-04-22T07:49:24.080Z,35.69
2023-04-22T07:51:53.462Z,33.28
2023-04-22T07:54:22.432Z,33.72
2023-04-22T07:56:49.392Z,33.84
2023-04-22T07:59:20.928Z,33.63
2023-04-22T08:01:50.521Z,33.96
2023-04-22T08:04:17.903Z,34.31
2023-04-22T08:06:44.732Z,34.70
2023-04-22T08:09:11.494Z,34.98
2023-04-22T08:11:38.350Z,35.23
2023-04-22T08:14:07.132Z,33.85
2023-04-22T08:16:33.854Z,34.18
2023-04-22T08:19:03.314Z,34.22
2023-04-22T08:21:30.079Z,34.54
2023-04-22T08:23:57.046Z,34.82
2023-04-22T08:26:23.669Z,34.21
2023-04-22T08:28:50.420Z,34.13
2023-04-22T08:31:19.561Z,33.94
2023-04-22T08:33:46.441Z,33.38
2023-04-22T08:36:13.078Z,32.34
2023-04-22T08:38:39.694Z,33.67
2023-04-22T08:41:07.139Z,33.24
2023-04-22T08:43:38.814Z,33.85
2023-04-22T08:46:09.942Z,31.32
2023-04-22T08:48:36.865Z,31.47
2023-04-22T08:51:03.726Z,32.00
2023-04-22T08:53:31.252Z,30.47
2023-04-22T08:56:00.449Z,31.78
2023-04-22T08:58:28.302Z,30.87
2023-04-22T09:00:57.318Z,30.61
2023-04-22T09:03:24.079Z,30.89
2023-04-22T09:05:50.700Z,30.98
2023-04-22T09:08:17.248Z,30.45
2023-04-22T09:10:43.861Z,29.89
2023-04-22T09:13:10.655Z,30.95
2023-04-22T09:15:40.210Z,30.61
2023-04-22T09:18:11.018Z,29.26
2023-04-22T09:20:44.126Z,29.10
2023-04-22T09:23:13.397Z,29.46
2023-04-22T09:25:42.431Z,30.84
2023-04-22T09:28:11.769Z,30.69
2023-04-22T09:30:40.776Z,28.04
2023-04-22T09:33:09.892Z,29.48
2023-04-22T09:35:37.129Z,29.61
2023-04-22T09:38:08.077Z,28.86
2023-04-22T09:40:38.022Z,28.61
2023-04-22T09:43:05.939Z,28.02
2023-04-22T09:45:36.499Z,29.29
2023-04-22T09:48:10.455Z,27.92
2023-04-22T09:50:37.909Z,28.04
2023-04-22T09:53:07.618Z,28.92
2023-04-22T09:55:35.720Z,27.30
2023-04-22T09:58:09.692Z,26.60
2023-04-22T10:00:39.430Z,27.50
2023-04-22T10:03:09.737Z,28.21
2023-04-22T10:05:37.919Z,27.45
2023-04-22T10:08:05.382Z,27.27
2023-04-22T10:10:32.676Z,26.64
2023-04-22T10:12:59.791Z,27.24
2023-04-22T10:15:27.138Z,26.29
2023-04-22T10:17:53.864Z,26.87
2023-04-22T10:20:23.015Z,26.84
2023-04-22T10:22:49.677Z,27.39
2023-04-22T10:25:25.846Z,25.38
2023-04-22T10:28:04.820Z,26.53
2023-04-22T10:30:32.163Z,26.17
2023-04-22T10:33:17.405Z,27.00
2023-04-22T10:36:04.130Z,24.61
2023-04-22T10:38:33.286Z,26.38
2023-04-22T10:41:04.706Z,26.06
2023-04-22T10:43:48.945Z,25.09
2023-04-22T10:46:40.410Z,25.79
2023-04-22T10:49:07.687Z,25.35
2023-04-22T10:51:41.095Z,26.12
2023-04-22T10:54:36.977Z,24.10
2023-04-22T10:57:03.714Z,23.39
2023-04-22T10:59:31.140Z,22.02
2023-04-22T11:02:01.914Z,21.89
2023-04-22T11:04:33.981Z,23.14
2023-04-22T11:07:20.531Z,23.70
2023-04-22T11:09:49.367Z,22.95
2023-04-22T11:12:34.800Z,21.98
2023-04-22T11:15:01.805Z,23.00
2023-04-22T11:17:28.452Z,24.32
2023-04-22T11:19:57.912Z,24.49
2023-04-22T11:22:26.843Z,24.53
2023-04-22T11:25:04.009Z,24.43
2023-04-22T11:27:30.707Z,24.18
2023-04-22T11:30:03.518Z,23.23
2023-04-22T11:32:32.752Z,23.67
2023-04-22T11:35:08.610Z,24.33
2023-04-22T11:37:45.291Z,22.81
2023-04-22T11:40:29.417Z,22.58
2023-04-22T11:43:02.600Z,24.06
2023-04-22T11:45:29.901Z,24.26
2023-04-22T11:47:56.695Z,24.31
2023-04-22T11:50:30.634Z,24.71
2023-04-22T11:52:58.442Z,25.67
2023-04-22T11:55:30.543Z,24.70
2023-04-22T11:58:00.465Z,23.87
2023-04-22T12:00:34.237Z,24.78
2023-04-22T12:03:01.958Z,23.51
2023-04-22T12:05:34.869Z,23.10
2023-04-22T12:08:02.639Z,22.67
2023-04-22T12:10:32.226Z,21.96
2023-04-22T12:13:00.191Z,21.84
2023-04-22T12:15:37.271Z,22.22
2023-04-22T12:18:08.977Z,21.93
2023-04-22T12:20:40.019Z,20.17
2023-04-22T12:23:11.781Z,21.17
2023-04-22T12:25:41.140Z,20.15
2023-04-22T12:28:07.781Z,20.29
2023-04-22T12:30:39.347Z,19.81
2023-04-22T12:33:11.622Z,19.90
2023-04-22T12:35:38.205Z,18.30
2023-04-22T12:38:07.318Z,19.26
2023-04-22T12:40:38.980Z,18.65
2023-04-22T12:43:08.587Z,19.09
2023-04-22T12:45:35.695Z,19.56
2023-04-22T12:48:02.443Z,21.19
2023-04-22T12:50:29.127Z,21.52
2023-04-22T12:52:55.819Z,21.14
2023-04-22T12:55:22.706Z,20.21
2023-04-22T12:57:49.753Z,19.56
2023-04-22T13:00:16.978Z,19.55
2023-04-22T13:02:44.336Z,20.12
2023-04-22T13:05:12.271Z,20.86
2023-04-22T13:07:46.757Z,20.88
2023-04-22T13:10:16.496Z,20.22
2023-04-22T13:12:43.679Z,21.21
2023-04-22T13:15:10.939Z,20.40
2023-04-22T13:17:37.732Z,20.53
2023-04-22T13:20:04.833Z,20.57
2023-04-22T13:22:33.963Z,20.72
2023-04-22T13:25:03.257Z,20.57
2023-04-22T13:27:29.887Z,20.13
2023-04-22T13:29:57.049Z,20.15
2023-04-22T13:32:25.871Z,20.95
2023-04-22T13:34:52.748Z,19.62
2023-04-22T13:37:21.350Z,20.57
2023-04-22T13:39:50.963Z,21.42
2023-04-22T13:42:17.687Z,22.21
2023-04-22T13:44:44.254Z,21.20
2023-04-22T13:47:11.563Z,21.85
2023-04-22T13:49:40.955Z,21.52
2023-04-22T13:52:07.963Z,21.28
2023-04-22T13:54:35.956Z,20.46
2023-04-22T13:57:03.808Z,18.79
2023-04-22T13:59:35.148Z,18.27
2023-04-22T14:02:01.722Z,19.79
2023-04-22T14:04:28.421Z,19.85
2023-04-22T14:07:00.043Z,18.79
2023-04-22T14:09:29.653Z,18.71
2023-04-22T14:11:56.843Z,17.98
2023-04-22T14:14:23.405Z,17.66
2023-04-22T14:16:50.217Z,18.73
2023-04-22T14:19:17.074Z,17.90
2023-04-22T14:21:46.259Z,17.63
2023-04-22T14:24:12.913Z,18.27
2023-04-22T14:26:42.573Z,18.91
2023-04-22T14:29:09.339Z,19.29
2023-04-22T14:31:35.949Z,19.24
2023-04-22T14:34:02.589Z,18.60
2023-04-22T14:36:32.071Z,18.27
2023-04-22T14:39:00.899Z,17.70
2023-04-22T14:41:27.578Z,16.56
2023-04-22T14:43:56.740Z,15.87
2023-04-22T14:46:23.658Z,16.31
2023-04-22T14:48:50.375Z,16.97
2023-04-22T14:51:19.163Z,16.39
2023-04-22T14:53:48.202Z,17.70
2023-04-22T14:56:14.746Z,18.12
2023-04-22T14:58:43.835Z,18.18
2023-04-22T15:01:10.815Z,18.11
2023-04-22T15:03:37.598Z,18.27
2023-04-22T15:06:04.516Z,18.00
2023-04-22T15:08:36.465Z,18.22
2023-04-22T15:11:03.188Z,18.38
2023-04-22T15:13:29.761Z,19.43
2023-04-22T15:15:59.195Z,19.79
2023-04-22T15:18:28.639Z,19.99
2023-04-22T15:20:55.332Z,19.88
2023-04-22T15:23:22.084Z,19.97
2023-04-22T15:25:48.641Z,20.16
2023-04-22T15:28:15.363Z,20.19
2023-04-22T15:30:44.402Z,20.25
2023-04-22T15:33:13.457Z,20.06
2023-04-22T15:35:41.398Z,19.97
2023-04-22T15:38:08.353Z,20.33
2023-04-22T15:40:34.954Z,20.52
2023-04-22T15:43:01.898Z,21.83
2023-04-22T15:45:33.013Z,21.91
2023-04-22T15:47:59.668Z,20.99
2023-04-22T15:50:26.446Z,21.20
2023-04-22T15:52:54.522Z,21.45
2023-04-22T15:55:23.516Z,21.20
2023-04-22T15:57:52.451Z,21.15
2023-04-22T16:00:21.419Z,21.39
2023-04-22T16:02:55.324Z,21.52
2023-04-22T16:05:26.726Z,21.96
2023-04-22T16:07:53.655Z,22.40
2023-04-22T16:10:20.465Z,22.15
2023-04-22T16:12:51.929Z,22.35
2023-04-22T16:15:23.579Z,22.07
2023-04-22T16:17:50.255Z,22.44
2023-04-22T16:20:19.724Z,22.10
2023-04-22T16:22:46.790Z,22.77
2023-04-22T16:25:13.487Z,22.85
2023-04-22T16:27:40.168Z,23.18
2023-04-22T16:30:07.124Z,22.28
2023-04-22T16:32:36.282Z,21.75
2023-04-22T16:35:02.908Z,22.08
2023-04-22T16:37:29.575Z,22.28
2023-04-22T16:39:56.341Z,22.60
2023-04-22T16:42:22.956Z,22.96
2023-04-22T16:44:51.760Z,22.29
2023-04-22T16:47:18.682Z,22.38
2023-04-22T16:49:45.416Z,22.34
2023-04-22T16:52:12.260Z,22.05
2023-04-22T16:54:40.807Z,22.29
2023-04-22T16:57:08.296Z,22.28
2023-04-22T16:59:35.135Z,22.10
2023-04-22T17:02:01.942Z,22.09
2023-04-22T17:04:30.949Z,22.26
2023-04-22T17:06:57.619Z,22.27
2023-04-22T17:09:24.459Z,22.69
2023-04-22T17:11:51.039Z,23.10
2023-04-22T17:14:20.183Z,23.07
2023-04-22T17:16:46.791Z,23.37
2023-04-22T17:19:15.760Z,23.83
2023-04-22T17:21:44.826Z,24.25
2023-04-22T17:24:11.536Z,24.24
2023-04-22T17:26:42.917Z,24.36
2023-04-22T17:29:09.591Z,24.47
2023-04-22T17:31:39.337Z,24.62
2023-04-22T17:34:08.933Z,25.33
2023-04-22T17:36:35.644Z,25.43
2023-04-22T17:39:04.734Z,25.86
2023-04-22T17:41:31.321Z,26.29
2023-04-22T17:43:59.188Z,26.45
2023-04-22T17:46:28.456Z,26.30
2023-04-22T17:48:57.129Z,26.46
2023-04-22T17:51:23.846Z,26.79
2023-04-22T17:53:53.200Z,26.10
2023-04-22T17:56:22.279Z,26.95
2023-04-22T17:58:48.936Z,27.52
2023-04-22T18:01:18.054Z,27.14
2023-04-22T18:03:44.846Z,27.48
2023-04-22T18:06:11.776Z,27.46
2023-04-22T18:08:42.837Z,27.70
2023-04-22T18:11:09.426Z,27.72
2023-04-22T18:13:39.062Z,27.74
2023-04-22T18:16:05.876Z,28.32
2023-04-22T18:18:32.543Z,28.21
2023-04-22T18:21:01.600Z,28.76
2023-04-22T18:23:28.668Z,28.73
2023-04-22T18:25:55.882Z,28.39
2023-04-22T18:28:24.905Z,28.79
2023-04-22T18:41:25.467Z,28.38
2023-04-22T18:43:54.431Z,28.86
2023-04-22T18:46:21.110Z,29.17
2023-04-22T18:48:47.682Z,29.03
2023-04-22T18:51:14.307Z,29.14
2023-04-22T18:53:43.430Z,29.04
2023-04-22T18:56:12.536Z,29.15
2023-04-22T18:58:39.506Z,29.36
2023-04-22T19:01:06.558Z,29.28
2023-04-22T19:03:36.518Z,29.52
2023-04-22T19:06:03.361Z,29.66
2023-04-22T19:08:29.925Z,29.81
2023-04-22T19:10:56.514Z,30.32
2023-04-22T19:15:57.713Z,30.29
2023-04-22T19:18:24.787Z,30.12
2023-04-22T19:20:51.529Z,29.96
2023-04-22T19:23:18.240Z,30.60
2023-04-22T19:25:44.902Z,30.25
2023-04-22T19:28:11.883Z,30.88
2023-04-22T19:30:44.297Z,30.97
2023-04-22T19:33:11.541Z,31.35
2023-04-22T19:35:38.196Z,31.53
2023-04-22T19:38:05.341Z,31.23
2023-04-22T19:40:31.912Z,31.69
2023-04-22T19:42:59.550Z,31.85
2023-04-22T19:45:26.809Z,31.91
2023-04-22T19:47:53.920Z,32.57
2023-04-22T19:50:23.173Z,32.78
2023-04-22T19:52:50.492Z,33.22
2023-04-22T19:55:22.432Z,33.71
2023-04-22T19:57:49.105Z,34.77
2023-04-22T20:00:16.205Z,34.79
2023-04-22T20:02:43.201Z,34.66
2023-04-22T20:05:10.497Z,34.19
2023-04-22T20:07:38.209Z,34.49
2023-04-22T20:10:05.750Z,34.66
2023-04-22T20:12:32.624Z,34.05
2023-04-22T20:15:00.107Z,34.15
2023-04-22T20:17:27.273Z,34.33
2023-04-22T20:19:54.522Z,34.36
2023-04-22T20:22:24.848Z,34.58
2023-04-22T20:25:04.116Z,35.44
2023-04-22T20:27:39.704Z,35.69
2023-04-22T20:30:07.350Z,35.30
2023-04-22T20:32:34.147Z,35.56
2023-04-22T20:35:00.955Z,36.40
2023-04-22T20:37:28.623Z,36.51
2023-04-22T20:39:55.647Z,37.18
2023-04-22T20:42:23.033Z,37.30
2023-04-22T20:44:52.288Z,37.61
2023-04-22T20:47:19.501Z,37.29
2023-04-22T20:49:48.526Z,37.12
2023-04-22T20:52:15.263Z,36.40
2023-04-22T20:54:51.226Z,36.82
2023-04-22T20:57:18.826Z,36.45
2023-04-22T20:59:45.473Z,36.54
2023-04-22T21:02:12.833Z,36.48
2023-04-22T21:04:40.202Z,36.16
2023-04-22T21:07:07.870Z,36.85
2023-04-22T21:09:37.314Z,36.20
2023-04-22T21:12:06.727Z,36.71
2023-04-22T21:14:33.469Z,36.66
2023-04-22T21:17:03.583Z,37.24
2023-04-22T21:19:35.763Z,36.81
2023-04-22T21:22:06.394Z,36.64
2023-04-22T21:24:33.707Z,37.72
2023-04-22T21:27:01.375Z,36.89
2023-04-22T21:29:28.881Z,36.76
2023-04-22T21:32:08.016Z,36.41
2023-04-22T21:34:38.258Z,36.05
2023-04-22T21:37:05.191Z,36.10
2023-04-22T21:39:31.876Z,36.54
2023-04-22T21:42:02.552Z,36.60
2023-04-22T21:44:29.656Z,37.04
2023-04-22T21:46:58.288Z,37.82
2023-04-22T21:49:25.268Z,38.84
2023-04-22T21:51:54.045Z,38.57
2023-04-22T21:54:23.037Z,39.82
2023-04-22T21:56:50.870Z,41.41
2023-04-22T21:59:17.507Z,42.72
2023-04-22T22:01:44.238Z,43.37
2023-04-22T22:04:14.797Z,43.58
2023-04-22T22:06:47.651Z,44.23
2023-04-22T22:09:19.235Z,44.25
2023-04-22T22:11:50.549Z,44.76
2023-04-22T22:14:17.237Z,45.43
2023-04-22T22:16:44.242Z,45.51
2023-04-22T22:19:14.536Z,47.03
2023-04-22T22:21:41.612Z,46.62
2023-04-22T22:24:10.613Z,47.05
2023-04-22T22:26:37.512Z,47.28
2023-04-22T22:29:06.791Z,47.27
2023-04-22T22:31:35.812Z,48.57
2023-04-22T22:34:03.334Z,47.98
2023-04-22T22:36:29.957Z,47.62
2023-04-22T22:38:56.656Z,47.56
2023-04-22T22:41:25.970Z,47.69
2023-04-22T22:43:52.708Z,47.40
2023-04-22T22:46:19.399Z,47.11
2023-04-22T22:48:48.498Z,46.16
2023-04-22T22:51:18.373Z,46.25
2023-04-22T22:53:45.390Z,46.50
2023-04-22T22:56:14.510Z,46.30
2023-04-22T22:58:41.251Z,46.85
2023-04-22T23:01:07.838Z,46.83
2023-04-22T23:03:39.520Z,47.07
2023-04-22T23:06:06.512Z,47.18
2023-04-22T23:08:33.516Z,47.54
2023-04-22T23:11:02.635Z,47.17
2023-04-22T23:13:29.259Z,47.51
2023-04-22T23:15:58.529Z,47.28
2023-04-22T23:18:26.634Z,46.74
2023-04-22T23:20:53.403Z,46.34
2023-04-22T23:23:21.138Z,46.28
2023-04-22T23:25:47.995Z,46.44
2023-04-22T23:28:17.144Z,46.78
2023-04-22T23:30:44.264Z,46.95
2023-04-22T23:33:10.872Z,46.97
2023-04-22T23:35:37.508Z,47.13
2023-04-22T23:38:06.759Z,46.93
2023-04-22T23:40:37.172Z,46.47
2023-04-22T23:43:06.589Z,46.98
2023-04-22T23:45:33.264Z,47.02
2023-04-22T23:48:05.022Z,46.94
2023-04-22T23:50:34.192Z,46.48
2023-04-22T23:53:00.778Z,46.43
2023-04-22T23:55:28.050Z,46.65
2023-04-22T23:57:57.932Z,46.46
